createdAt,value
2018-03-14T00:04:20.052Z,5.00
2018-03-14T00:11:45.477Z,5.00
2018-03-14T00:16:42.693Z,5.00
2018-03-14T00:19:10.318Z,5.00
2018-03-14T00:21:37.871Z,4.90
2018-03-14T00:24:05.486Z,4.90
2018-03-14T00:26:33.027Z,5.00
2018-03-14T00:29:00.580Z,5.00
2018-03-14T00:31:28.549Z,5.00
2018-03-14T00:33:56.155Z,5.00
2018-03-14T00:36:24.093Z,5.10
2018-03-14T00:38:51.682Z,5.10
2018-03-14T00:41:19.626Z,5.00
2018-03-14T00:43:47.560Z,5.00
2018-03-14T00:46:15.178Z,4.90
2018-03-14T00:48:42.723Z,5.00
2018-03-14T00:51:10.348Z,5.00
2018-03-14T00:53:37.908Z,4.80
2018-03-14T00:56:06.644Z,4.60
2018-03-14T00:58:34.993Z,4.70
2018-03-14T01:01:02.605Z,4.60
2018-03-14T01:03:30.997Z,4.70
2018-03-14T01:05:58.570Z,4.90
2018-03-14T01:08:27.248Z,4.90
2018-03-14T01:10:55.658Z,4.90
2018-03-14T01:13:23.614Z,4.90
2018-03-14T01:15:51.146Z,4.80
2018-03-14T01:18:19.518Z,4.80
2018-03-14T01:20:47.916Z,4.80
2018-03-14T01:23:16.246Z,4.80
2018-03-14T01:28:12.872Z,4.90
2018-03-14T01:30:42.015Z,4.90
2018-03-14T01:35:38.537Z,4.90
2018-03-14T01:38:06.505Z,4.90
2018-03-14T01:40:34.059Z,4.90
2018-03-14T01:43:01.991Z,4.90
2018-03-14T01:45:29.510Z,4.90
2018-03-14T01:47:57.070Z,5.00
2018-03-14T01:50:24.620Z,4.90
2018-03-14T01:52:52.168Z,4.90
2018-03-14T01:57:49.865Z,4.90
2018-03-14T02:00:18.238Z,4.90
2018-03-14T02:02:46.291Z,5.00
2018-03-14T02:05:14.368Z,4.90
2018-03-14T02:10:10.985Z,4.90
2018-03-14T02:12:39.284Z,4.90
2018-03-14T02:15:07.581Z,4.90
2018-03-14T02:17:35.568Z,4.90
2018-03-14T02:20:04.393Z,4.90
2018-03-14T02:22:32.754Z,4.90
2018-03-14T02:25:00.223Z,4.90
2018-03-14T02:27:28.684Z,4.90
2018-03-14T02:29:56.123Z,4.80
2018-03-14T02:32:23.589Z,4.90
2018-03-14T02:34:51.792Z,4.90
2018-03-14T02:37:19.324Z,4.80
2018-03-14T02:39:47.939Z,4.90
2018-03-14T02:42:15.478Z,4.80
2018-03-14T02:44:43.335Z,4.80
2018-03-14T02:47:11.568Z,4.70
2018-03-14T02:49:39.024Z,4.80
2018-03-14T02:52:06.463Z,4.80
2018-03-14T02:57:03.475Z,5.00
2018-03-14T02:59:31.337Z,4.90
2018-03-14T03:01:59.906Z,4.80
2018-03-14T03:04:27.362Z,4.80
2018-03-14T03:06:54.812Z,4.90
2018-03-14T03:09:22.290Z,5.00
2018-03-14T03:11:50.145Z,5.00
2018-03-14T03:14:17.605Z,5.00
2018-03-14T03:16:45.035Z,5.00
2018-03-14T03:19:13.239Z,5.00
2018-03-14T03:21:41.075Z,4.90
2018-03-14T03:24:10.028Z,4.90
2018-03-14T03:26:37.854Z,5.00
2018-03-14T03:29:05.299Z,4.90
2018-03-14T03:31:33.528Z,5.10
2018-03-14T03:34:01.738Z,4.90
2018-03-14T03:36:29.188Z,4.80
2018-03-14T03:38:58.154Z,4.60
2018-03-14T03:41:26.358Z,4.50
2018-03-14T03:43:53.804Z,4.70
2018-03-14T03:46:21.244Z,4.50
2018-03-14T03:48:48.703Z,4.40
2018-03-14T03:51:16.550Z,4.30
2018-03-14T03:53:44.793Z,4.10
2018-03-14T03:56:12.244Z,4.10
2018-03-14T03:58:39.702Z,4.00
2018-03-14T04:01:07.572Z,3.80
2018-03-14T04:03:35.415Z,3.80
2018-03-14T04:06:02.867Z,3.80
2018-03-14T04:08:30.334Z,3.70
2018-03-14T04:10:58.178Z,3.60
2018-03-14T04:13:25.646Z,3.60
2018-03-14T04:15:53.091Z,3.60
2018-03-14T04:18:20.549Z,3.60
2018-03-14T04:20:48.758Z,3.60
2018-03-14T04:23:16.197Z,3.60
2018-03-14T04:25:44.436Z,3.60
2018-03-14T04:28:11.862Z,3.50
2018-03-14T04:30:39.302Z,3.40
2018-03-14T04:33:06.752Z,3.30
2018-03-14T04:35:34.219Z,3.30
2018-03-14T04:38:01.675Z,3.30
2018-03-14T04:40:29.124Z,3.20
2018-03-14T04:42:56.563Z,3.20
2018-03-14T04:45:24.804Z,3.50
2018-03-14T04:47:52.256Z,3.60
2018-03-14T04:50:21.233Z,3.70
2018-03-14T04:52:49.463Z,3.80
2018-03-14T04:55:16.931Z,3.80
2018-03-14T04:57:44.376Z,3.70
2018-03-14T05:00:11.841Z,3.70
2018-03-14T05:02:39.303Z,3.80
2018-03-14T05:05:06.779Z,3.80
2018-03-14T05:07:34.231Z,3.80
2018-03-14T05:10:01.722Z,3.90
2018-03-14T05:12:29.925Z,4.10
2018-03-14T05:14:57.370Z,4.20
2018-03-14T05:17:25.829Z,4.40
2018-03-14T05:19:54.803Z,4.40
2018-03-14T05:22:22.644Z,4.60
2018-03-14T05:24:50.099Z,4.80
2018-03-14T05:27:18.389Z,4.90
2018-03-14T05:29:46.591Z,5.00
2018-03-14T05:34:42.863Z,5.10
2018-03-14T05:37:10.332Z,5.00
2018-03-14T05:39:37.788Z,5.00
2018-03-14T05:42:05.230Z,4.90
2018-03-14T05:44:33.816Z,4.80
2018-03-14T05:47:02.040Z,4.70
2018-03-14T05:49:30.725Z,4.60
2018-03-14T05:51:58.602Z,4.50
2018-03-14T05:54:26.055Z,4.40
2018-03-14T05:59:23.455Z,4.40
2018-03-14T06:01:51.670Z,4.40
2018-03-14T06:04:19.900Z,4.30
2018-03-14T06:06:47.345Z,4.40
2018-03-14T06:09:14.807Z,4.30
2018-03-14T06:11:42.262Z,4.40
2018-03-14T06:14:09.710Z,4.30
2018-03-14T06:16:37.950Z,4.30
2018-03-14T06:19:05.790Z,4.20
2018-03-14T06:21:33.250Z,4.30
2018-03-14T06:24:00.685Z,4.10
2018-03-14T06:26:29.263Z,3.80
2018-03-14T06:28:56.702Z,3.80
2018-03-14T06:31:24.162Z,3.60
2018-03-14T06:33:52.369Z,3.70
2018-03-14T06:36:21.325Z,3.80
2018-03-14T06:38:48.767Z,4.00
2018-03-14T06:41:16.966Z,4.20
2018-03-14T06:43:45.166Z,4.30
2018-03-14T06:46:13.014Z,4.40
2018-03-14T06:48:41.227Z,4.50
2018-03-14T06:51:08.669Z,4.50
2018-03-14T06:53:36.894Z,4.60
2018-03-14T06:56:04.402Z,4.60
2018-03-14T06:58:43.582Z,5.80
2018-03-14T07:04:52.600Z,7.60
2018-03-14T07:07:20.018Z,7.80
2018-03-14T07:09:48.610Z,8.10
2018-03-14T07:12:17.191Z,7.80
2018-03-14T07:14:45.439Z,7.50
2018-03-14T07:17:12.987Z,7.60
2018-03-14T07:19:40.444Z,7.00
2018-03-14T07:22:07.900Z,6.50
2018-03-14T07:24:36.134Z,6.50
2018-03-14T07:27:03.590Z,6.50
2018-03-14T07:29:31.799Z,6.70
2018-03-14T07:31:59.285Z,7.10
2018-03-14T07:34:26.758Z,7.60
2018-03-14T07:36:54.194Z,7.80
2018-03-14T07:39:22.059Z,7.20
2018-03-14T07:41:49.518Z,6.70
2018-03-14T07:44:16.970Z,6.60
2018-03-14T07:46:44.442Z,6.70
2018-03-14T07:49:11.886Z,6.80
2018-03-14T07:51:40.122Z,6.90
2018-03-14T07:54:07.560Z,7.20
2018-03-14T07:56:35.002Z,8.10
2018-03-14T07:59:03.205Z,8.70
2018-03-14T08:01:31.414Z,9.30
2018-03-14T08:03:58.861Z,9.70
2018-03-14T08:06:26.306Z,8.40
2018-03-14T08:08:54.539Z,8.20
2018-03-14T08:11:21.976Z,8.90
2018-03-14T08:13:50.373Z,8.80
2018-03-14T08:16:17.641Z,8.80
2018-03-14T08:18:45.305Z,9.00
2018-03-14T08:21:13.522Z,9.30
2018-03-14T08:23:40.978Z,9.00
2018-03-14T08:26:08.427Z,9.20
2018-03-14T08:28:37.406Z,8.50
2018-03-14T08:31:04.898Z,8.10
2018-03-14T08:33:32.364Z,7.80
2018-03-14T08:36:00.579Z,7.60
2018-03-14T08:38:29.162Z,7.50
2018-03-14T08:40:56.723Z,7.40
2018-03-14T08:43:24.558Z,7.10
2018-03-14T08:45:52.408Z,7.40
2018-03-14T08:48:19.859Z,8.20
2018-03-14T08:50:47.689Z,8.30
2018-03-14T08:53:15.385Z,8.40
2018-03-14T08:55:42.836Z,8.50
2018-03-14T08:58:11.031Z,9.30
2018-03-14T09:00:39.244Z,9.70
2018-03-14T09:03:06.782Z,9.70
2018-03-14T09:05:35.053Z,9.40
2018-03-14T09:08:02.947Z,9.50
2018-03-14T09:10:30.386Z,8.90
2018-03-14T09:12:57.826Z,8.60
2018-03-14T09:15:25.485Z,8.40
2018-03-14T09:17:53.031Z,8.50
2018-03-14T09:20:20.874Z,8.70
2018-03-14T09:22:48.314Z,9.10
2018-03-14T09:25:15.937Z,9.00
2018-03-14T09:27:44.219Z,9.10
2018-03-14T09:30:12.431Z,8.50
2018-03-14T09:32:39.889Z,8.90
2018-03-14T09:35:07.746Z,9.20
2018-03-14T09:37:36.259Z,9.80
2018-03-14T09:40:04.471Z,9.50
2018-03-14T09:42:31.950Z,9.80
2018-03-14T09:44:59.451Z,9.80
2018-03-14T09:47:26.959Z,10.20
2018-03-14T09:49:55.236Z,10.20
2018-03-14T09:52:22.711Z,10.40
2018-03-14T09:54:50.944Z,10.80
2018-03-14T09:57:18.652Z,11.10
2018-03-14T09:59:46.247Z,10.60
2018-03-14T10:02:13.682Z,10.40
2018-03-14T10:04:42.036Z,10.30
2018-03-14T10:07:09.511Z,10.00
2018-03-14T10:09:37.207Z,10.40
2018-03-14T10:12:05.651Z,10.20
2018-03-14T10:14:33.100Z,10.00
2018-03-14T10:17:01.345Z,9.70
2018-03-14T10:19:29.587Z,10.30
2018-03-14T10:21:57.201Z,10.90
2018-03-14T10:24:24.686Z,11.20
2018-03-14T10:26:52.992Z,10.00
2018-03-14T10:29:21.249Z,10.90
2018-03-14T10:31:48.713Z,12.70
2018-03-14T10:34:16.654Z,13.30
2018-03-14T10:36:44.196Z,14.30
2018-03-14T10:39:12.121Z,14.60
2018-03-14T10:41:40.392Z,14.30
2018-03-14T10:44:07.838Z,13.80
2018-03-14T10:46:36.247Z,14.00
2018-03-14T10:49:03.698Z,14.80
2018-03-14T10:51:31.142Z,12.70
2018-03-14T10:53:58.587Z,14.10
2018-03-14T10:56:26.375Z,14.70
2018-03-14T10:58:54.663Z,13.90
2018-03-14T11:01:22.507Z,14.50
2018-03-14T11:03:49.971Z,14.40
2018-03-14T11:06:17.694Z,13.40
2018-03-14T11:08:46.174Z,13.90
2018-03-14T11:11:15.059Z,13.30
2018-03-14T11:13:42.516Z,12.40
2018-03-14T11:16:10.370Z,12.80
2018-03-14T11:18:38.198Z,14.50
2018-03-14T11:21:05.835Z,14.10
2018-03-14T11:23:33.272Z,13.70
2018-03-14T11:26:00.732Z,13.00
2018-03-14T11:28:28.937Z,12.40
2018-03-14T11:30:56.612Z,12.50
2018-03-14T11:33:25.039Z,12.20
2018-03-14T11:35:52.515Z,12.70
2018-03-14T11:38:19.952Z,13.50
2018-03-14T11:40:47.551Z,14.20
2018-03-14T11:43:15.298Z,14.20
2018-03-14T11:45:42.838Z,15.40
2018-03-14T11:48:10.696Z,15.50
2018-03-14T11:50:38.592Z,15.00
2018-03-14T11:53:06.513Z,14.80
2018-03-14T11:55:34.095Z,14.30
2018-03-14T11:58:02.302Z,15.20
2018-03-14T12:00:29.759Z,16.10
2018-03-14T12:02:57.282Z,15.20
2018-03-14T12:05:25.557Z,16.10
2018-03-14T12:07:53.799Z,15.20
2018-03-14T12:10:22.767Z,16.00
2018-03-14T12:12:50.215Z,15.90
2018-03-14T12:15:18.459Z,15.30
2018-03-14T12:17:46.025Z,16.00
2018-03-14T12:20:13.443Z,15.00
2018-03-14T12:22:41.274Z,15.30
2018-03-14T12:25:09.560Z,17.00
2018-03-14T12:27:37.484Z,15.40
2018-03-14T12:30:04.928Z,17.00
2018-03-14T12:32:32.767Z,16.80
2018-03-14T12:35:00.308Z,17.40
2018-03-14T12:37:27.788Z,17.80
2018-03-14T12:39:55.240Z,15.80
2018-03-14T12:42:22.702Z,17.20
2018-03-14T12:44:50.543Z,17.70
2018-03-14T12:47:17.983Z,18.10
2018-03-14T12:49:45.418Z,17.30
2018-03-14T12:52:12.912Z,13.90
2018-03-14T12:54:40.367Z,16.20
2018-03-14T12:57:11.821Z,15.60
2018-03-14T13:02:15.065Z,16.80
2018-03-14T13:04:44.283Z,14.60
2018-03-14T13:07:12.123Z,17.10
2018-03-14T13:09:39.951Z,16.90
2018-03-14T13:12:07.416Z,16.50
2018-03-14T13:14:35.284Z,18.20
2018-03-14T13:17:02.729Z,17.80
2018-03-14T13:19:30.598Z,19.10
2018-03-14T13:21:58.448Z,15.90
2018-03-14T13:24:26.764Z,16.30
2018-03-14T13:26:54.698Z,15.20
2018-03-14T13:29:25.525Z,14.00
2018-03-14T13:31:53.103Z,16.80
2018-03-14T13:34:21.709Z,18.60
2018-03-14T13:36:49.927Z,19.20
2018-03-14T13:39:17.423Z,19.50
2018-03-14T13:41:45.645Z,17.10
2018-03-14T13:44:13.088Z,17.70
2018-03-14T13:46:40.872Z,18.80
2018-03-14T13:49:08.343Z,19.10
2018-03-14T13:51:35.839Z,17.70
2018-03-14T13:54:04.115Z,18.70
2018-03-14T13:56:31.579Z,19.30
2018-03-14T13:59:07.535Z,19.40
2018-03-14T14:01:35.592Z,16.90
2018-03-14T14:04:03.048Z,17.70
2018-03-14T14:06:30.903Z,16.90
2018-03-14T14:08:59.135Z,17.00
2018-03-14T14:11:28.832Z,17.30
2018-03-14T14:13:56.816Z,17.50
2018-03-14T14:16:25.048Z,14.80
2018-03-14T14:18:52.495Z,13.20
2018-03-14T14:21:20.737Z,12.70
2018-03-14T14:23:48.620Z,13.30
2018-03-14T14:26:18.371Z,13.40
2018-03-14T14:28:45.834Z,13.60
2018-03-14T14:31:13.333Z,14.40
2018-03-14T14:33:40.808Z,14.70
2018-03-14T14:36:10.537Z,16.10
2018-03-14T14:38:37.988Z,17.40
2018-03-14T14:41:06.186Z,17.90
2018-03-14T14:46:15.452Z,15.80
2018-03-14T14:48:42.904Z,16.60
2018-03-14T14:51:10.371Z,15.90
2018-03-14T14:53:37.830Z,15.10
2018-03-14T14:56:05.679Z,14.40
2018-03-14T14:58:35.632Z,12.90
2018-03-14T15:01:12.611Z,12.40
2018-03-14T15:03:40.455Z,12.10
2018-03-14T15:06:08.654Z,12.20
2018-03-14T15:08:36.917Z,12.80
2018-03-14T15:11:04.389Z,12.80
2018-03-14T15:13:32.604Z,13.00
2018-03-14T15:16:03.890Z,13.20
2018-03-14T15:18:31.427Z,13.10
2018-03-14T15:20:59.641Z,13.50
2018-03-14T15:23:27.479Z,13.60
2018-03-14T15:25:54.945Z,13.40
2018-03-14T15:28:22.403Z,13.20
2018-03-14T15:30:50.755Z,12.70
2018-03-14T15:33:21.224Z,12.50
2018-03-14T15:35:48.755Z,12.70
2018-03-14T15:38:16.348Z,11.90
2018-03-14T15:40:43.781Z,12.00
2018-03-14T15:43:11.251Z,12.20
2018-03-14T15:45:38.695Z,12.50
2018-03-14T15:48:06.651Z,12.40
2018-03-14T15:50:34.512Z,12.50
2018-03-14T15:53:03.095Z,12.40
2018-03-14T15:55:30.668Z,12.30
2018-03-14T15:57:59.164Z,12.60
2018-03-14T16:00:28.156Z,12.30
2018-03-14T16:03:11.197Z,11.90
2018-03-14T16:05:40.922Z,11.70
2018-03-14T16:08:18.984Z,11.60
2018-03-14T16:10:46.823Z,11.80
2018-03-14T16:13:19.896Z,11.60
2018-03-14T16:15:47.364Z,11.60
2018-03-14T16:18:15.629Z,11.50
2018-03-14T16:20:43.131Z,11.40
2018-03-14T16:23:10.584Z,11.50
2018-03-14T16:25:38.418Z,11.50
2018-03-14T16:28:05.862Z,11.50
2018-03-14T16:30:33.289Z,11.40
2018-03-14T16:33:00.747Z,11.30
2018-03-14T16:35:28.196Z,11.30
2018-03-14T16:37:55.641Z,11.30
2018-03-14T16:40:23.466Z,11.20
2018-03-14T16:42:51.321Z,11.10
2018-03-14T16:45:19.152Z,11.00
2018-03-14T16:47:47.358Z,10.90
2018-03-14T16:50:16.098Z,10.90
2018-03-14T16:52:43.489Z,11.20
2018-03-14T16:55:11.034Z,11.30
2018-03-14T16:57:38.509Z,11.30
2018-03-14T17:02:34.775Z,11.20
2018-03-14T17:05:02.224Z,11.00
2018-03-14T17:07:30.461Z,10.90
2018-03-14T17:09:58.295Z,10.80
2018-03-14T17:12:25.724Z,10.70
2018-03-14T17:14:53.564Z,10.60
2018-03-14T17:17:21.413Z,10.40
2018-03-14T17:19:54.184Z,10.30
2018-03-14T17:22:23.138Z,10.30
2018-03-14T17:24:50.995Z,10.20
2018-03-14T17:27:18.888Z,10.10
2018-03-14T17:29:46.689Z,9.80
2018-03-14T17:32:15.296Z,9.50
2018-03-14T17:34:42.720Z,9.30
2018-03-14T17:37:10.175Z,8.90
2018-03-14T17:39:37.639Z,8.70
2018-03-14T17:44:33.863Z,8.40
2018-03-14T17:47:02.110Z,8.30
2018-03-14T17:49:29.581Z,8.20
2018-03-14T17:51:57.045Z,8.10
2018-03-14T17:54:25.620Z,7.90
2018-03-14T17:59:22.271Z,7.80
2018-03-14T18:01:49.734Z,7.60
2018-03-14T18:06:45.988Z,7.50
2018-03-14T18:09:13.840Z,7.50
2018-03-14T18:11:42.116Z,7.50
2018-03-14T18:14:10.323Z,7.30
2018-03-14T18:16:37.776Z,7.20
2018-03-14T18:21:39.045Z,7.00
2018-03-14T18:24:06.489Z,6.90
2018-03-14T18:26:33.938Z,6.80
2018-03-14T18:29:04.036Z,6.80
2018-03-14T18:31:31.479Z,6.70
2018-03-14T18:33:58.918Z,6.70
2018-03-14T18:36:27.140Z,6.60
2018-03-14T18:38:58.107Z,6.90
2018-03-14T18:41:25.579Z,6.80
2018-03-14T18:46:22.944Z,6.80
2018-03-14T18:48:50.786Z,6.60
2018-03-14T18:53:47.086Z,6.40
2018-03-14T18:56:14.947Z,6.30
2018-03-14T18:58:42.413Z,6.30
2018-03-14T19:01:24.187Z,6.30
2018-03-14T19:03:52.051Z,6.30
2018-03-14T19:06:19.655Z,6.20
2018-03-14T19:08:48.619Z,6.10
2018-03-14T19:11:16.096Z,6.10
2018-03-14T19:13:44.656Z,6.10
2018-03-14T19:16:13.680Z,6.00
2018-03-14T19:18:41.131Z,6.00
2018-03-14T19:21:08.986Z,5.90
2018-03-14T19:23:37.205Z,6.20
2018-03-14T19:26:05.425Z,6.40
2018-03-14T19:28:33.099Z,6.30
2018-03-14T19:31:00.625Z,6.20
2018-03-14T19:33:28.877Z,6.10
2018-03-14T19:35:56.724Z,5.90
2018-03-14T19:38:24.952Z,5.80
2018-03-14T19:40:52.502Z,5.70
2018-03-14T19:43:21.456Z,5.80
2018-03-14T19:45:48.908Z,5.60
2018-03-14T19:48:16.369Z,5.50
2018-03-14T19:50:44.237Z,5.50
2018-03-14T19:55:40.528Z,5.60
2018-03-14T19:58:08.850Z,5.60
2018-03-14T20:00:49.834Z,5.60
2018-03-14T20:03:18.046Z,5.60
2018-03-14T20:05:46.732Z,5.80
2018-03-14T20:08:14.183Z,6.00
2018-03-14T20:10:49.007Z,6.10
2018-03-14T20:15:46.233Z,6.20
2018-03-14T20:18:13.702Z,6.50
2018-03-14T20:20:41.964Z,6.30
2018-03-14T20:25:39.152Z,6.00
2018-03-14T20:28:06.643Z,5.90
2018-03-14T20:30:37.013Z,5.80
2018-03-14T20:33:05.473Z,6.10
2018-03-14T20:38:02.304Z,6.10
2018-03-14T20:43:23.551Z,6.30
2018-03-14T20:48:24.300Z,6.20
2018-03-14T20:50:51.768Z,6.00
2018-03-14T20:55:48.126Z,5.90
2018-03-14T20:58:15.563Z,5.70
2018-03-14T21:00:43.416Z,5.80
2018-03-14T21:03:10.883Z,5.90
2018-03-14T21:05:44.196Z,5.70
2018-03-14T21:08:11.687Z,5.50
2018-03-14T21:10:39.954Z,5.60
2018-03-14T21:15:36.979Z,5.20
2018-03-14T21:18:05.636Z,5.10
2018-03-14T21:20:33.098Z,5.20
2018-03-14T21:23:01.730Z,5.30
2018-03-14T21:25:30.771Z,5.10
2018-03-14T21:30:27.067Z,5.10
2018-03-14T21:32:54.518Z,5.00
2018-03-14T21:35:22.376Z,4.80
2018-03-14T21:37:49.855Z,4.70
2018-03-14T21:40:18.472Z,4.70
2018-03-14T21:42:46.316Z,4.70
2018-03-14T21:45:14.163Z,4.60
2018-03-14T21:47:41.605Z,4.50
2018-03-14T21:50:09.798Z,4.80
2018-03-14T21:52:37.273Z,4.70
2018-03-14T22:00:02.303Z,4.80
2018-03-14T22:02:31.271Z,4.80
2018-03-14T22:04:58.779Z,4.80
2018-03-14T22:07:26.574Z,5.20
2018-03-14T22:09:54.012Z,5.40
2018-03-14T22:14:50.294Z,5.30
2018-03-14T22:17:18.157Z,5.40
2018-03-14T22:19:46.367Z,5.50
2018-03-14T22:22:14.261Z,5.20
2018-03-14T22:24:42.085Z,5.40
2018-03-14T22:27:10.308Z,5.50
2018-03-14T22:29:37.761Z,5.50
2018-03-14T22:32:05.207Z,5.30
2018-03-14T22:34:33.427Z,5.10
2018-03-14T22:37:02.038Z,5.30
2018-03-14T22:39:29.490Z,5.40
2018-03-14T22:41:56.931Z,5.30
2018-03-14T22:44:25.144Z,5.30
2018-03-14T22:46:53.384Z,5.40
2018-03-14T22:49:20.812Z,5.30
2018-03-14T22:51:48.235Z,5.30
2018-03-14T22:54:16.454Z,5.50
2018-03-14T22:56:44.654Z,5.50
2018-03-14T22:59:12.113Z,5.50
2018-03-14T23:01:39.599Z,5.40
2018-03-14T23:04:07.824Z,5.40
2018-03-14T23:09:11.287Z,5.50
2018-03-14T23:11:38.764Z,5.50
2018-03-14T23:14:06.231Z,5.50
2018-03-14T23:16:33.680Z,5.40
2018-03-14T23:19:01.912Z,5.30
2018-03-14T23:21:30.127Z,5.30
2018-03-14T23:23:57.714Z,5.40
2018-03-14T23:26:25.169Z,5.40
2018-03-14T23:28:52.627Z,5.30
2018-03-14T23:31:20.461Z,5.20
2018-03-14T23:33:47.916Z,5.20
2018-03-14T23:36:15.772Z,5.20
2018-03-14T23:38:43.992Z,5.30
2018-03-14T23:41:11.441Z,5.30
2018-03-14T23:43:38.886Z,5.40
2018-03-14T23:46:07.094Z,5.40
2018-03-14T23:48:34.946Z,5.20
2018-03-14T23:53:31.184Z,5.40
2018-03-14T23:55:58.634Z,5.40
2018-03-14T23:58:26.071Z,5.40
